sensor_id;sensor_type;location;lat;lon;timestamp;P1;durP1;ratioP1;P2;durP2;ratioP2
48951;SDS011;34758;42.148;24.744;2023-02-12T00:01:21;21.77;;;12.82;;
48951;SDS011;34758;42.148;24.744;2023-02-12T00:03:52;23.45;;;13.48;;
48951;SDS011;34758;42.148;24.744;2023-02-12T00:06:19;22.15;;;13.15;;
48951;SDS011;34758;42.148;24.744;2023-02-12T00:08:49;19.00;;;10.93;;
48951;SDS011;34758;42.148;24.744;2023-02-12T00:11:20;20.98;;;12.13;;
48951;SDS011;34758;42.148;24.744;2023-02-12T00:13:53;19.73;;;11.43;;
48951;SDS011;34758;42.148;24.744;2023-02-12T00:16:21;19.50;;;11.95;;
48951;SDS011;34758;42.148;24.744;2023-02-12T00:18:53;19.80;;;11.48;;
48951;SDS011;34758;42.148;24.744;2023-02-12T00:21:23;18.50;;;11.10;;
48951;SDS011;34758;42.148;24.744;2023-02-12T00:23:50;19.63;;;10.88;;
48951;SDS011;34758;42.148;24.744;2023-02-12T00:26:19;15.88;;;9.32;;
48951;SDS011;34758;42.148;24.744;2023-02-12T00:28:47;18.05;;;10.82;;
48951;SDS011;34758;42.148;24.744;2023-02-12T00:31:16;17.25;;;10.13;;
48951;SDS011;34758;42.148;24.744;2023-02-12T00:36:14;15.52;;;8.60;;
48951;SDS011;34758;42.148;24.744;2023-02-12T00:38:44;12.15;;;7.30;;
48951;SDS011;34758;42.148;24.744;2023-02-12T00:41:12;12.70;;;7.13;;
48951;SDS011;34758;42.148;24.744;2023-02-12T00:43:40;12.38;;;7.82;;
48951;SDS011;34758;42.148;24.744;2023-02-12T00:46:07;14.40;;;8.38;;
48951;SDS011;34758;42.148;24.744;2023-02-12T00:48:39;12.02;;;7.90;;
48951;SDS011;34758;42.148;24.744;2023-02-12T00:51:07;12.70;;;7.68;;
48951;SDS011;34758;42.148;24.744;2023-02-12T00:53:37;11.68;;;6.95;;
48951;SDS011;34758;42.148;24.744;2023-02-12T00:56:05;12.60;;;7.38;;
48951;SDS011;34758;42.148;24.744;2023-02-12T00:58:32;13.23;;;7.10;;
48951;SDS011;34758;42.148;24.744;2023-02-12T01:01:00;12.02;;;6.90;;
48951;SDS011;34758;42.148;24.744;2023-02-12T01:03:27;9.32;;;5.85;;
48951;SDS011;34758;42.148;24.744;2023-02-12T01:05:58;9.70;;;5.72;;
48951;SDS011;34758;42.148;24.744;2023-02-12T01:08:25;9.07;;;4.95;;
48951;SDS011;34758;42.148;24.744;2023-02-12T01:10:54;6.72;;;3.90;;
48951;SDS011;34758;42.148;24.744;2023-02-12T01:13:22;8.88;;;4.50;;
48951;SDS011;34758;42.148;24.744;2023-02-12T01:15:59;7.03;;;3.85;;
48951;SDS011;34758;42.148;24.744;2023-02-12T01:18:27;6.18;;;3.53;;
48951;SDS011;34758;42.148;24.744;2023-02-12T01:20:55;7.20;;;3.80;;
48951;SDS011;34758;42.148;24.744;2023-02-12T01:23:25;7.15;;;3.75;;
48951;SDS011;34758;42.148;24.744;2023-02-12T01:25:54;7.80;;;4.55;;
48951;SDS011;34758;42.148;24.744;2023-02-12T01:28:21;7.95;;;5.05;;
48951;SDS011;34758;42.148;24.744;2023-02-12T01:30:49;8.77;;;4.60;;
48951;SDS011;34758;42.148;24.744;2023-02-12T01:33:16;9.00;;;4.78;;
48951;SDS011;34758;42.148;24.744;2023-02-12T01:35:44;7.32;;;4.60;;
48951;SDS011;34758;42.148;24.744;2023-02-12T01:38:11;8.25;;;5.38;;
48951;SDS011;34758;42.148;24.744;2023-02-12T01:40:40;11.38;;;5.40;;
48951;SDS011;34758;42.148;24.744;2023-02-12T01:43:08;9.70;;;5.65;;
48951;SDS011;34758;42.148;24.744;2023-02-12T01:45:42;8.90;;;5.05;;
48951;SDS011;34758;42.148;24.744;2023-02-12T01:48:11;8.65;;;5.18;;
48951;SDS011;34758;42.148;24.744;2023-02-12T01:50:40;8.60;;;5.03;;
48951;SDS011;34758;42.148;24.744;2023-02-12T01:53:08;8.75;;;4.93;;
48951;SDS011;34758;42.148;24.744;2023-02-12T01:55:37;7.10;;;4.50;;
48951;SDS011;34758;42.148;24.744;2023-02-12T01:58:07;14.25;;;5.78;;
48951;SDS011;34758;42.148;24.744;2023-02-12T02:00:36;9.02;;;5.20;;
48951;SDS011;34758;42.148;24.744;2023-02-12T02:03:03;9.35;;;5.38;;
48951;SDS011;34758;42.148;24.744;2023-02-12T02:05:32;6.40;;;4.53;;
48951;SDS011;34758;42.148;24.744;2023-02-12T02:08:04;7.95;;;5.05;;
48951;SDS011;34758;42.148;24.744;2023-02-12T02:10:31;7.30;;;4.63;;
48951;SDS011;34758;42.148;24.744;2023-02-12T02:13:02;7.53;;;4.70;;
48951;SDS011;34758;42.148;24.744;2023-02-12T02:15:47;9.23;;;5.47;;
48951;SDS011;34758;42.148;24.744;2023-02-12T02:18:16;6.13;;;4.07;;
48951;SDS011;34758;42.148;24.744;2023-02-12T02:21:02;7.65;;;4.03;;
48951;SDS011;34758;42.148;24.744;2023-02-12T02:27:07;6.25;;;3.53;;
48951;SDS011;34758;42.148;24.744;2023-02-12T02:29:47;6.00;;;3.38;;
48951;SDS011;34758;42.148;24.744;2023-02-12T02:32:35;9.93;;;4.05;;
48951;SDS011;34758;42.148;24.744;2023-02-12T02:35:07;7.18;;;4.22;;
48951;SDS011;34758;42.148;24.744;2023-02-12T02:37:38;8.48;;;4.57;;
48951;SDS011;34758;42.148;24.744;2023-02-12T02:40:08;7.45;;;4.20;;
48951;SDS011;34758;42.148;24.744;2023-02-12T02:45:29;10.55;;;5.20;;
48951;SDS011;34758;42.148;24.744;2023-02-12T02:48:01;9.05;;;5.28;;
48951;SDS011;34758;42.148;24.744;2023-02-12T02:50:31;7.77;;;4.40;;
48951;SDS011;34758;42.148;24.744;2023-02-12T02:53:01;9.23;;;5.55;;
48951;SDS011;34758;42.148;24.744;2023-02-12T02:58:03;8.35;;;4.50;;
48951;SDS011;34758;42.148;24.744;2023-02-12T03:00:37;11.73;;;6.03;;
48951;SDS011;34758;42.148;24.744;2023-02-12T03:03:06;9.68;;;5.63;;
48951;SDS011;34758;42.148;24.744;2023-02-12T03:05:36;8.70;;;5.30;;
48951;SDS011;34758;42.148;24.744;2023-02-12T03:08:07;9.90;;;6.28;;
48951;SDS011;34758;42.148;24.744;2023-02-12T03:10:39;9.67;;;5.73;;
48951;SDS011;34758;42.148;24.744;2023-02-12T03:13:08;8.65;;;4.78;;
48951;SDS011;34758;42.148;24.744;2023-02-12T03:15:39;7.80;;;4.35;;
48951;SDS011;34758;42.148;24.744;2023-02-12T03:20:38;7.35;;;4.75;;
48951;SDS011;34758;42.148;24.744;2023-02-12T03:23:09;10.35;;;5.63;;
48951;SDS011;34758;42.148;24.744;2023-02-12T03:25:39;6.72;;;3.75;;
48951;SDS011;34758;42.148;24.744;2023-02-12T03:28:12;9.43;;;4.85;;
48951;SDS011;34758;42.148;24.744;2023-02-12T03:30:44;9.25;;;4.63;;
48951;SDS011;34758;42.148;24.744;2023-02-12T03:33:22;6.40;;;4.40;;
48951;SDS011;34758;42.148;24.744;2023-02-12T03:35:58;7.15;;;4.82;;
48951;SDS011;34758;42.148;24.744;2023-02-12T03:38:30;6.63;;;3.97;;
48951;SDS011;34758;42.148;24.744;2023-02-12T03:41:03;7.03;;;4.30;;
48951;SDS011;34758;42.148;24.744;2023-02-12T03:43:37;7.30;;;3.88;;
48951;SDS011;34758;42.148;24.744;2023-02-12T03:46:13;8.60;;;5.13;;
48951;SDS011;34758;42.148;24.744;2023-02-12T03:48:45;7.78;;;5.13;;
48951;SDS011;34758;42.148;24.744;2023-02-12T03:51:20;8.82;;;4.88;;
48951;SDS011;34758;42.148;24.744;2023-02-12T03:53:48;7.30;;;4.75;;
48951;SDS011;34758;42.148;24.744;2023-02-12T03:56:17;6.47;;;4.78;;
48951;SDS011;34758;42.148;24.744;2023-02-12T03:58:47;8.40;;;4.32;;
48951;SDS011;34758;42.148;24.744;2023-02-12T04:01:15;6.85;;;4.50;;
48951;SDS011;34758;42.148;24.744;2023-02-12T04:03:44;7.00;;;4.28;;
48951;SDS011;34758;42.148;24.744;2023-02-12T04:06:18;6.95;;;4.53;;
48951;SDS011;34758;42.148;24.744;2023-02-12T04:08:46;11.50;;;5.05;;
48951;SDS011;34758;42.148;24.744;2023-02-12T04:11:16;9.68;;;5.75;;
48951;SDS011;34758;42.148;24.744;2023-02-12T04:13:51;8.20;;;5.90;;
48951;SDS011;34758;42.148;24.744;2023-02-12T04:16:27;10.60;;;6.13;;
48951;SDS011;34758;42.148;24.744;2023-02-12T04:18:56;11.30;;;6.22;;
48951;SDS011;34758;42.148;24.744;2023-02-12T04:21:35;7.88;;;5.22;;
48951;SDS011;34758;42.148;24.744;2023-02-12T04:24:12;8.93;;;5.43;;
48951;SDS011;34758;42.148;24.744;2023-02-12T04:26:47;9.13;;;5.32;;
48951;SDS011;34758;42.148;24.744;2023-02-12T04:29:17;6.60;;;4.53;;
48951;SDS011;34758;42.148;24.744;2023-02-12T04:31:48;7.43;;;4.82;;
48951;SDS011;34758;42.148;24.744;2023-02-12T04:34:19;6.83;;;4.43;;
48951;SDS011;34758;42.148;24.744;2023-02-12T04:36:52;7.10;;;4.63;;
48951;SDS011;34758;42.148;24.744;2023-02-12T04:39:23;7.03;;;4.50;;
48951;SDS011;34758;42.148;24.744;2023-02-12T04:41:52;7.90;;;4.82;;
48951;SDS011;34758;42.148;24.744;2023-02-12T04:44:21;5.30;;;3.63;;
48951;SDS011;34758;42.148;24.744;2023-02-12T04:46:56;7.85;;;4.43;;
48951;SDS011;34758;42.148;24.744;2023-02-12T04:49:25;5.95;;;3.15;;
48951;SDS011;34758;42.148;24.744;2023-02-12T04:51:52;8.05;;;4.78;;
48951;SDS011;34758;42.148;24.744;2023-02-12T04:54:21;7.25;;;4.60;;
48951;SDS011;34758;42.148;24.744;2023-02-12T04:56:50;10.10;;;5.13;;
48951;SDS011;34758;42.148;24.744;2023-02-12T04:59:17;5.88;;;4.50;;
48951;SDS011;34758;42.148;24.744;2023-02-12T05:01:44;8.88;;;5.32;;
48951;SDS011;34758;42.148;24.744;2023-02-12T05:04:13;9.23;;;5.72;;
48951;SDS011;34758;42.148;24.744;2023-02-12T05:06:42;7.72;;;4.68;;
48951;SDS011;34758;42.148;24.744;2023-02-12T05:09:09;7.70;;;5.03;;
48951;SDS011;34758;42.148;24.744;2023-02-12T05:11:40;5.75;;;4.00;;
48951;SDS011;34758;42.148;24.744;2023-02-12T05:14:07;8.70;;;5.72;;
48951;SDS011;34758;42.148;24.744;2023-02-12T05:16:35;9.88;;;5.53;;
48951;SDS011;34758;42.148;24.744;2023-02-12T05:19:05;8.57;;;6.30;;
48951;SDS011;34758;42.148;24.744;2023-02-12T05:21:36;8.38;;;6.53;;
48951;SDS011;34758;42.148;24.744;2023-02-12T05:24:05;11.60;;;6.30;;
48951;SDS011;34758;42.148;24.744;2023-02-12T05:26:31;10.13;;;6.03;;
48951;SDS011;34758;42.148;24.744;2023-02-12T05:28:58;9.77;;;5.93;;
48951;SDS011;34758;42.148;24.744;2023-02-12T05:31:26;9.13;;;5.40;;
48951;SDS011;34758;42.148;24.744;2023-02-12T05:33:53;8.40;;;5.75;;
48951;SDS011;34758;42.148;24.744;2023-02-12T05:36:21;10.35;;;6.45;;
48951;SDS011;34758;42.148;24.744;2023-02-12T05:38:51;12.15;;;6.70;;
48951;SDS011;34758;42.148;24.744;2023-02-12T05:41:23;10.05;;;6.50;;
48951;SDS011;34758;42.148;24.744;2023-02-12T05:43:53;9.90;;;6.15;;
48951;SDS011;34758;42.148;24.744;2023-02-12T05:46:21;14.65;;;7.00;;
48951;SDS011;34758;42.148;24.744;2023-02-12T05:48:49;9.07;;;6.30;;
48951;SDS011;34758;42.148;24.744;2023-02-12T05:51:17;8.07;;;4.93;;
48951;SDS011;34758;42.148;24.744;2023-02-12T05:53:46;10.60;;;5.75;;
48951;SDS011;34758;42.148;24.744;2023-02-12T05:56:16;8.10;;;4.93;;
48951;SDS011;34758;42.148;24.744;2023-02-12T05:58:45;8.82;;;5.68;;
48951;SDS011;34758;42.148;24.744;2023-02-12T06:01:15;8.07;;;4.60;;
48951;SDS011;34758;42.148;24.744;2023-02-12T06:03:43;7.72;;;5.18;;
48951;SDS011;34758;42.148;24.744;2023-02-12T06:06:10;10.27;;;5.63;;
48951;SDS011;34758;42.148;24.744;2023-02-12T06:08:40;9.10;;;6.32;;
48951;SDS011;34758;42.148;24.744;2023-02-12T06:11:09;10.90;;;5.63;;
48951;SDS011;34758;42.148;24.744;2023-02-12T06:13:42;7.22;;;4.40;;
48951;SDS011;34758;42.148;24.744;2023-02-12T06:16:16;8.93;;;5.65;;
48951;SDS011;34758;42.148;24.744;2023-02-12T06:18:44;12.40;;;6.53;;
48951;SDS011;34758;42.148;24.744;2023-02-12T06:21:11;8.98;;;5.78;;
48951;SDS011;34758;42.148;24.744;2023-02-12T06:23:39;9.07;;;4.78;;
48951;SDS011;34758;42.148;24.744;2023-02-12T06:26:06;7.65;;;4.93;;
48951;SDS011;34758;42.148;24.744;2023-02-12T06:28:34;10.63;;;6.13;;
48951;SDS011;34758;42.148;24.744;2023-02-12T06:31:03;9.25;;;6.30;;
48951;SDS011;34758;42.148;24.744;2023-02-12T06:33:30;8.70;;;5.53;;
48951;SDS011;34758;42.148;24.744;2023-02-12T06:36:03;11.93;;;6.57;;
48951;SDS011;34758;42.148;24.744;2023-02-12T06:38:33;10.73;;;5.70;;
48951;SDS011;34758;42.148;24.744;2023-02-12T06:41:00;10.98;;;6.40;;
48951;SDS011;34758;42.148;24.744;2023-02-12T06:43:29;8.75;;;5.57;;
48951;SDS011;34758;42.148;24.744;2023-02-12T06:46:01;9.20;;;5.68;;
48951;SDS011;34758;42.148;24.744;2023-02-12T06:48:29;10.15;;;6.63;;
48951;SDS011;34758;42.148;24.744;2023-02-12T06:51:02;11.60;;;6.03;;
48951;SDS011;34758;42.148;24.744;2023-02-12T06:53:33;8.93;;;5.70;;
48951;SDS011;34758;42.148;24.744;2023-02-12T06:56:00;11.73;;;6.15;;
48951;SDS011;34758;42.148;24.744;2023-02-12T06:58:28;10.45;;;6.00;;
48951;SDS011;34758;42.148;24.744;2023-02-12T07:00:55;10.02;;;5.90;;
48951;SDS011;34758;42.148;24.744;2023-02-12T07:03:24;12.48;;;6.82;;
48951;SDS011;34758;42.148;24.744;2023-02-12T07:05:53;12.13;;;7.93;;
48951;SDS011;34758;42.148;24.744;2023-02-12T07:08:20;12.02;;;7.57;;
48951;SDS011;34758;42.148;24.744;2023-02-12T07:10:47;13.90;;;7.97;;
48951;SDS011;34758;42.148;24.744;2023-02-12T07:13:15;12.82;;;8.18;;
48951;SDS011;34758;42.148;24.744;2023-02-12T07:15:44;14.05;;;8.82;;
48951;SDS011;34758;42.148;24.744;2023-02-12T07:18:11;14.23;;;9.45;;
48951;SDS011;34758;42.148;24.744;2023-02-12T07:20:43;23.75;;;13.18;;
48951;SDS011;34758;42.148;24.744;2023-02-12T07:23:11;19.67;;;10.77;;
48951;SDS011;34758;42.148;24.744;2023-02-12T07:25:42;13.32;;;8.50;;
48951;SDS011;34758;42.148;24.744;2023-02-12T07:28:09;17.02;;;10.15;;
48951;SDS011;34758;42.148;24.744;2023-02-12T07:30:40;18.98;;;10.13;;
48951;SDS011;34758;42.148;24.744;2023-02-12T07:33:09;17.08;;;10.77;;
48951;SDS011;34758;42.148;24.744;2023-02-12T07:35:38;17.83;;;10.50;;
48951;SDS011;34758;42.148;24.744;2023-02-12T07:38:10;22.95;;;13.63;;
48951;SDS011;34758;42.148;24.744;2023-02-12T07:40:41;24.25;;;12.05;;
48951;SDS011;34758;42.148;24.744;2023-02-12T07:43:13;19.95;;;10.65;;
48951;SDS011;34758;42.148;24.744;2023-02-12T07:45:41;17.60;;;11.10;;
48951;SDS011;34758;42.148;24.744;2023-02-12T07:48:12;17.98;;;10.75;;
48951;SDS011;34758;42.148;24.744;2023-02-12T07:50:38;17.35;;;11.32;;
48951;SDS011;34758;42.148;24.744;2023-02-12T07:53:08;13.77;;;9.77;;
48951;SDS011;34758;42.148;24.744;2023-02-12T07:58:28;15.80;;;10.82;;
48951;SDS011;34758;42.148;24.744;2023-02-12T08:00:57;16.02;;;9.80;;
48951;SDS011;34758;42.148;24.744;2023-02-12T08:03:27;15.77;;;9.80;;
48951;SDS011;34758;42.148;24.744;2023-02-12T08:05:59;13.00;;;9.90;;
48951;SDS011;34758;42.148;24.744;2023-02-12T08:08:29;15.85;;;10.88;;
48951;SDS011;34758;42.148;24.744;2023-02-12T08:10:58;16.88;;;11.45;;
48951;SDS011;34758;42.148;24.744;2023-02-12T08:13:27;16.02;;;10.52;;
48951;SDS011;34758;42.148;24.744;2023-02-12T08:15:58;19.98;;;13.32;;
48951;SDS011;34758;42.148;24.744;2023-02-12T08:18:35;16.30;;;11.30;;
48951;SDS011;34758;42.148;24.744;2023-02-12T08:21:06;20.80;;;12.02;;
48951;SDS011;34758;42.148;24.744;2023-02-12T08:23:41;18.08;;;10.88;;
48951;SDS011;34758;42.148;24.744;2023-02-12T08:26:08;13.88;;;8.85;;
48951;SDS011;34758;42.148;24.744;2023-02-12T08:28:48;18.80;;;11.40;;
48951;SDS011;34758;42.148;24.744;2023-02-12T08:31:17;16.70;;;11.20;;
48951;SDS011;34758;42.148;24.744;2023-02-12T08:33:46;14.32;;;10.45;;
48951;SDS011;34758;42.148;24.744;2023-02-12T08:36:16;16.65;;;10.05;;
48951;SDS011;34758;42.148;24.744;2023-02-12T08:38:51;17.60;;;10.15;;
48951;SDS011;34758;42.148;24.744;2023-02-12T08:41:19;14.52;;;10.48;;
48951;SDS011;34758;42.148;24.744;2023-02-12T08:43:53;15.43;;;9.18;;
48951;SDS011;34758;42.148;24.744;2023-02-12T08:46:24;18.25;;;11.18;;
48951;SDS011;34758;42.148;24.744;2023-02-12T08:48:54;15.60;;;9.00;;
48951;SDS011;34758;42.148;24.744;2023-02-12T08:51:24;14.23;;;8.82;;
48951;SDS011;34758;42.148;24.744;2023-02-12T08:53:54;13.93;;;8.35;;
48951;SDS011;34758;42.148;24.744;2023-02-12T08:56:26;12.30;;;8.43;;
48951;SDS011;34758;42.148;24.744;2023-02-12T08:58:56;13.80;;;8.98;;
48951;SDS011;34758;42.148;24.744;2023-02-12T09:01:27;13.23;;;7.85;;
48951;SDS011;34758;42.148;24.744;2023-02-12T09:03:57;15.40;;;9.35;;
48951;SDS011;34758;42.148;24.744;2023-02-12T09:06:27;11.82;;;8.27;;
48951;SDS011;34758;42.148;24.744;2023-02-12T09:08:58;9.75;;;7.93;;
48951;SDS011;34758;42.148;24.744;2023-02-12T09:11:28;10.57;;;7.97;;
48951;SDS011;34758;42.148;24.744;2023-02-12T09:14:00;13.05;;;8.63;;
48951;SDS011;34758;42.148;24.744;2023-02-12T09:16:30;11.40;;;7.65;;
48951;SDS011;34758;42.148;24.744;2023-02-12T09:18:59;13.52;;;8.88;;
48951;SDS011;34758;42.148;24.744;2023-02-12T09:21:30;15.27;;;9.55;;
48951;SDS011;34758;42.148;24.744;2023-02-12T09:24:06;11.88;;;8.23;;
48951;SDS011;34758;42.148;24.744;2023-02-12T09:26:36;8.77;;;6.95;;
48951;SDS011;34758;42.148;24.744;2023-02-12T09:29:06;10.85;;;7.40;;
48951;SDS011;34758;42.148;24.744;2023-02-12T09:31:37;13.73;;;9.77;;
48951;SDS011;34758;42.148;24.744;2023-02-12T09:34:08;16.83;;;11.07;;
48951;SDS011;34758;42.148;24.744;2023-02-12T09:36:38;12.98;;;9.65;;
48951;SDS011;34758;42.148;24.744;2023-02-12T09:39:08;11.63;;;8.55;;
48951;SDS011;34758;42.148;24.744;2023-02-12T09:44:31;13.90;;;9.15;;
48951;SDS011;34758;42.148;24.744;2023-02-12T09:47:07;21.40;;;13.68;;
48951;SDS011;34758;42.148;24.744;2023-02-12T09:50:08;13.43;;;9.23;;
48951;SDS011;34758;42.148;24.744;2023-02-12T09:52:55;14.35;;;9.40;;
48951;SDS011;34758;42.148;24.744;2023-02-12T09:55:29;13.52;;;9.48;;
48951;SDS011;34758;42.148;24.744;2023-02-12T09:58:01;12.30;;;8.23;;
48951;SDS011;34758;42.148;24.744;2023-02-12T10:00:32;14.90;;;9.60;;
48951;SDS011;34758;42.148;24.744;2023-02-12T10:03:00;13.82;;;9.25;;
48951;SDS011;34758;42.148;24.744;2023-02-12T10:05:36;15.82;;;9.63;;
48951;SDS011;34758;42.148;24.744;2023-02-12T10:08:18;11.25;;;7.95;;
48951;SDS011;34758;42.148;24.744;2023-02-12T10:11:06;13.73;;;8.60;;
48951;SDS011;34758;42.148;24.744;2023-02-12T10:13:50;11.93;;;8.77;;
48951;SDS011;34758;42.148;24.744;2023-02-12T10:16:31;10.05;;;7.55;;
48951;SDS011;34758;42.148;24.744;2023-02-12T10:19:07;11.45;;;8.05;;
48951;SDS011;34758;42.148;24.744;2023-02-12T10:21:49;12.47;;;8.60;;
48951;SDS011;34758;42.148;24.744;2023-02-12T10:24:34;11.13;;;8.50;;
48951;SDS011;34758;42.148;24.744;2023-02-12T10:27:23;13.60;;;8.13;;
48951;SDS011;34758;42.148;24.744;2023-02-12T10:30:03;10.45;;;7.65;;
48951;SDS011;34758;42.148;24.744;2023-02-12T10:32:35;12.03;;;7.60;;
48951;SDS011;34758;42.148;24.744;2023-02-12T10:35:10;11.23;;;7.70;;
48951;SDS011;34758;42.148;24.744;2023-02-12T10:37:42;10.27;;;7.88;;
48951;SDS011;34758;42.148;24.744;2023-02-12T10:40:15;10.40;;;7.72;;
48951;SDS011;34758;42.148;24.744;2023-02-12T10:42:48;10.38;;;7.30;;
48951;SDS011;34758;42.148;24.744;2023-02-12T10:48:09;8.93;;;6.70;;
48951;SDS011;34758;42.148;24.744;2023-02-12T10:50:45;9.95;;;6.43;;
48951;SDS011;34758;42.148;24.744;2023-02-12T10:53:20;12.77;;;7.82;;
48951;SDS011;34758;42.148;24.744;2023-02-12T10:56:10;9.07;;;6.78;;
48951;SDS011;34758;42.148;24.744;2023-02-12T10:58:54;12.75;;;7.28;;
48951;SDS011;34758;42.148;24.744;2023-02-12T11:01:25;12.57;;;6.70;;
48951;SDS011;34758;42.148;24.744;2023-02-12T11:03:54;9.65;;;6.72;;
48951;SDS011;34758;42.148;24.744;2023-02-12T11:06:23;9.50;;;7.07;;
48951;SDS011;34758;42.148;24.744;2023-02-12T11:08:53;11.55;;;7.70;;
48951;SDS011;34758;42.148;24.744;2023-02-12T11:11:24;9.88;;;6.97;;
48951;SDS011;34758;42.148;24.744;2023-02-12T11:13:59;9.45;;;7.47;;
48951;SDS011;34758;42.148;24.744;2023-02-12T11:16:36;10.95;;;7.68;;
48951;SDS011;34758;42.148;24.744;2023-02-12T11:19:17;9.35;;;7.50;;
48951;SDS011;34758;42.148;24.744;2023-02-12T11:21:49;11.68;;;8.00;;
48951;SDS011;34758;42.148;24.744;2023-02-12T11:24:30;10.57;;;7.88;;
48951;SDS011;34758;42.148;24.744;2023-02-12T11:27:11;11.68;;;7.65;;
48951;SDS011;34758;42.148;24.744;2023-02-12T11:30:03;10.70;;;8.48;;
48951;SDS011;34758;42.148;24.744;2023-02-12T11:32:38;11.52;;;7.45;;
48951;SDS011;34758;42.148;24.744;2023-02-12T11:35:11;10.68;;;7.10;;
48951;SDS011;34758;42.148;24.744;2023-02-12T11:37:45;12.18;;;7.25;;
48951;SDS011;34758;42.148;24.744;2023-02-12T11:40:20;9.48;;;7.00;;
48951;SDS011;34758;42.148;24.744;2023-02-12T11:42:53;9.82;;;6.65;;
48951;SDS011;34758;42.148;24.744;2023-02-12T11:45:29;10.48;;;7.50;;
48951;SDS011;34758;42.148;24.744;2023-02-12T11:48:00;11.23;;;7.85;;
48951;SDS011;34758;42.148;24.744;2023-02-12T11:50:30;12.57;;;9.02;;
48951;SDS011;34758;42.148;24.744;2023-02-12T11:55:37;10.68;;;7.95;;
48951;SDS011;34758;42.148;24.744;2023-02-12T11:58:13;10.93;;;7.78;;
48951;SDS011;34758;42.148;24.744;2023-02-12T12:00:45;9.05;;;6.90;;
48951;SDS011;34758;42.148;24.744;2023-02-12T12:03:18;9.13;;;7.13;;
48951;SDS011;34758;42.148;24.744;2023-02-12T12:05:48;10.57;;;8.30;;
48951;SDS011;34758;42.148;24.744;2023-02-12T12:08:20;11.85;;;8.82;;
48951;SDS011;34758;42.148;24.744;2023-02-12T12:10:50;11.27;;;8.00;;
48951;SDS011;34758;42.148;24.744;2023-02-12T12:15:58;12.57;;;8.57;;
48951;SDS011;34758;42.148;24.744;2023-02-12T12:18:49;9.45;;;7.25;;
48951;SDS011;34758;42.148;24.744;2023-02-12T12:21:39;13.55;;;8.02;;
48951;SDS011;34758;42.148;24.744;2023-02-12T12:24:10;9.48;;;7.45;;
48951;SDS011;34758;42.148;24.744;2023-02-12T12:26:41;11.32;;;8.27;;
48951;SDS011;34758;42.148;24.744;2023-02-12T12:29:12;11.70;;;8.23;;
48951;SDS011;34758;42.148;24.744;2023-02-12T12:31:52;11.23;;;8.82;;
48951;SDS011;34758;42.148;24.744;2023-02-12T12:34:24;11.10;;;8.13;;
48951;SDS011;34758;42.148;24.744;2023-02-12T12:36:58;11.70;;;8.60;;
48951;SDS011;34758;42.148;24.744;2023-02-12T12:39:38;12.48;;;9.88;;
48951;SDS011;34758;42.148;24.744;2023-02-12T12:42:29;11.10;;;7.88;;
48951;SDS011;34758;42.148;24.744;2023-02-12T12:45:21;12.20;;;9.02;;
48951;SDS011;34758;42.148;24.744;2023-02-12T12:48:03;12.30;;;8.05;;
48951;SDS011;34758;42.148;24.744;2023-02-12T12:50:40;10.75;;;8.32;;
48951;SDS011;34758;42.148;24.744;2023-02-12T12:53:18;10.38;;;8.00;;
48951;SDS011;34758;42.148;24.744;2023-02-12T12:56:06;23.10;;;8.75;;
48951;SDS011;34758;42.148;24.744;2023-02-12T12:58:44;13.73;;;7.93;;
48951;SDS011;34758;42.148;24.744;2023-02-12T13:01:22;12.77;;;8.45;;
48951;SDS011;34758;42.148;24.744;2023-02-12T13:04:11;12.93;;;7.78;;
48951;SDS011;34758;42.148;24.744;2023-02-12T13:07:10;11.17;;;8.10;;
48951;SDS011;34758;42.148;24.744;2023-02-12T13:09:45;14.68;;;9.07;;
48951;SDS011;34758;42.148;24.744;2023-02-12T13:12:28;13.00;;;8.82;;
48951;SDS011;34758;42.148;24.744;2023-02-12T13:15:04;16.73;;;8.35;;
48951;SDS011;34758;42.148;24.744;2023-02-12T13:17:40;11.40;;;8.20;;
48951;SDS011;34758;42.148;24.744;2023-02-12T13:20:15;14.68;;;8.45;;
48951;SDS011;34758;42.148;24.744;2023-02-12T13:22:46;13.02;;;9.02;;
48951;SDS011;34758;42.148;24.744;2023-02-12T13:25:20;15.40;;;9.80;;
48951;SDS011;34758;42.148;24.744;2023-02-12T13:27:50;15.55;;;10.20;;
48951;SDS011;34758;42.148;24.744;2023-02-12T13:30:19;13.25;;;9.65;;
48951;SDS011;34758;42.148;24.744;2023-02-12T13:33:00;11.70;;;8.63;;
48951;SDS011;34758;42.148;24.744;2023-02-12T13:35:30;11.93;;;8.90;;
48951;SDS011;34758;42.148;24.744;2023-02-12T13:37:58;12.73;;;9.40;;
48951;SDS011;34758;42.148;24.744;2023-02-12T13:40:26;12.38;;;9.00;;
48951;SDS011;34758;42.148;24.744;2023-02-12T13:42:55;11.63;;;8.98;;
48951;SDS011;34758;42.148;24.744;2023-02-12T13:45:34;19.45;;;11.05;;
48951;SDS011;34758;42.148;24.744;2023-02-12T13:51:20;20.48;;;13.27;;
48951;SDS011;34758;42.148;24.744;2023-02-12T13:53:55;24.63;;;15.25;;
48951;SDS011;34758;42.148;24.744;2023-02-12T13:56:33;15.00;;;10.18;;
48951;SDS011;34758;42.148;24.744;2023-02-12T13:59:19;13.50;;;9.40;;
48951;SDS011;34758;42.148;24.744;2023-02-12T14:02:23;15.20;;;10.65;;
48951;SDS011;34758;42.148;24.744;2023-02-12T14:05:16;13.82;;;10.55;;
48951;SDS011;34758;42.148;24.744;2023-02-12T14:07:53;14.90;;;9.70;;
48951;SDS011;34758;42.148;24.744;2023-02-12T14:10:22;12.77;;;10.23;;
48951;SDS011;34758;42.148;24.744;2023-02-12T14:12:52;13.95;;;9.63;;
48951;SDS011;34758;42.148;24.744;2023-02-12T14:15:25;11.25;;;9.60;;
48951;SDS011;34758;42.148;24.744;2023-02-12T14:17:55;13.65;;;9.25;;
48951;SDS011;34758;42.148;24.744;2023-02-12T14:20:30;15.40;;;10.88;;
48951;SDS011;34758;42.148;24.744;2023-02-12T14:23:19;15.95;;;12.13;;
48951;SDS011;34758;42.148;24.744;2023-02-12T14:25:59;16.05;;;11.88;;
48951;SDS011;34758;42.148;24.744;2023-02-12T14:28:31;16.43;;;12.03;;
48951;SDS011;34758;42.148;24.744;2023-02-12T14:31:19;16.80;;;12.75;;
48951;SDS011;34758;42.148;24.744;2023-02-12T14:33:52;20.42;;;13.18;;
48951;SDS011;34758;42.148;24.744;2023-02-12T14:37:17;16.17;;;12.27;;
48951;SDS011;34758;42.148;24.744;2023-02-12T14:43:23;23.33;;;12.77;;
48951;SDS011;34758;42.148;24.744;2023-02-12T14:45:54;17.67;;;12.75;;
48951;SDS011;34758;42.148;24.744;2023-02-12T14:48:38;19.35;;;13.13;;
48951;SDS011;34758;42.148;24.744;2023-02-12T14:51:15;19.48;;;14.00;;
48951;SDS011;34758;42.148;24.744;2023-02-12T14:53:49;18.15;;;12.63;;
48951;SDS011;34758;42.148;24.744;2023-02-12T14:56:19;20.00;;;12.73;;
48951;SDS011;34758;42.148;24.744;2023-02-12T14:58:47;17.98;;;13.77;;
48951;SDS011;34758;42.148;24.744;2023-02-12T15:01:15;17.00;;;13.20;;
48951;SDS011;34758;42.148;24.744;2023-02-12T15:03:45;16.13;;;11.90;;
48951;SDS011;34758;42.148;24.744;2023-02-12T15:06:16;22.40;;;13.85;;
48951;SDS011;34758;42.148;24.744;2023-02-12T15:08:50;18.67;;;14.13;;
48951;SDS011;34758;42.148;24.744;2023-02-12T15:11:25;18.80;;;13.32;;
48951;SDS011;34758;42.148;24.744;2023-02-12T15:13:56;21.05;;;15.10;;
48951;SDS011;34758;42.148;24.744;2023-02-12T15:16:28;22.33;;;15.23;;
48951;SDS011;34758;42.148;24.744;2023-02-12T15:19:01;23.25;;;14.85;;
48951;SDS011;34758;42.148;24.744;2023-02-12T15:24:02;23.45;;;17.98;;
48951;SDS011;34758;42.148;24.744;2023-02-12T15:26:32;24.48;;;15.70;;
48951;SDS011;34758;42.148;24.744;2023-02-12T15:29:00;23.25;;;15.90;;
48951;SDS011;34758;42.148;24.744;2023-02-12T15:31:31;23.00;;;17.02;;